Flora, IL

10:36 PM CDT am 06. Mai 2015 (GMT -0500)
Flora Municipal | | Change Station
CLOSE
Current Station
Flughafen
Location: Flora,
Höhe: 472 ft
Wetterstationen in der Umgebung

Höhe 472 ft 38.67 °N, 88.45 °W | Updated 21 minutes ago

Heiter
Heiter
68 °F
gefühlte 68 °F
N
4
Wind Wechselnd Wind aus Ost

Heute
Max. -- | schwach -- °F
--% Regenrisiko
Gestern
Max. -- | schwach -- °F
Precip. -- inch
5:50 AM 7:50 PM
Drittes Viertel, 91% visible
Druck 30.07 inch
Sichtweite 10.0 Meilen
Wolken Heiter
Taupunkt 56 °F
Feuchtigkeit 66%
Regen 0.00 inch
Schneehöhe Nicht verfügbar..
UV 0 von 12
Pollen 9.90 von 12
Luftqualität Nicht verfügbar..
Flu Activity Local Activity
METAR KFOA 070315Z AUTO 10003KT 10SM CLR 20/13 A3007 RMK AO2 T02000134

More Conditions Fewer Conditions

Druck 30.07 inch
Sichtweite 10.0 Meilen
Wolken Heiter
Taupunkt 56 °F
Feuchtigkeit 66%
Regen 0.00 inch
Schneehöhe Nicht verfügbar..
UV 0 von 12
Pollen 9.90 von 12
Luftqualität Nicht verfügbar..
Flu Activity Local Activity
METAR KFOA 070315Z AUTO 10003KT 10SM CLR 20/13 A3007 RMK AO2 T02000134

More Conditions Fewer Conditions

10-Day Weather Forecast

Almanac

Astronomie

May. 06, 2015 Aufgang Untergang
Genaue Zeit
Bürgerliche Dämmerung
Nautische Dämmerung
Astronomische Dämmerung
Mond
Länge des sichtbaren Lichts
Tageslänge
Tomorrow will be .
, % of the Moon is Illuminated

Heutige Rekorde

State Highs State Lows

Community

WunderPhotos

Upload Photos

1,819,103 Fotos hochgeladen!

WunderBlogs® & News

Nearby

Luftqualität

  Luftqualität LQ Index Schadstoff
Not available.

Schneehöhe

Station Depth Höhe

Erdbebenaktivität

Stadt Distance Mag. Time & Date
Minimum magnitude displayed is 2.5.

küstennahe Wassertemperaturen

Ort Temperatur

Stations

Wetterstationen in der Umgebung

Stationsstandort Temp. Windchill Taupunkt Feuchtigkeit Wind Precip. Höhe Aktualisiert Art